Terminal Aerodrome Forecast
Issued by NWS Goodland, KS

Home | Current Version | Previous Version | Text Only | Print | Product List | Glossary Off
Versions: 1 2 3 4 5 6 7 8 9 10 11 12 13 14

303
FTUS43 KGLD 052320
TAFGLD
TAF
KGLD 052320Z 0600/0624 31010KT P6SM FEW250
     FM060600 28009KT P6SM SKC
     FM061400 25007KT P6SM FEW250=

USA.gov is the U.S. government's official web portal to all federal, state and local government web resources and services.